BKP273 VTBS-VTSP
Flight info
| Callsign | BKP273 |
|---|---|
| Flight time | 1h 1m |
| Altitude | 38000 |
| Route | VANKO1G VANKO Y8 SAVSA SAVSA1D |
| Aircraft | A319/M-SDE3FGHIRWY/LB1 |
Departure
| Time | 2026-05-04 08:06 |
|---|---|
| Airport | Suvarnabhumi Airport (VTBS) |
Arrival
| Time | 2026-05-04 09:08 |
|---|---|
| Airport | Phuket International Airport (VTSP) |
| Time | Latitude | Longitude | Altitude | Speed | Heading |
|---|---|---|---|---|---|
| 2026-05-04 07:33 | 13.69327 | 100.75554 | 13 ft | 0 kts | 284° |
| 2026-05-04 07:52 | 13.69326 | 100.75558 | 41 ft | 2 kts | 284° |
| 2026-05-04 07:52 | 13.69322 | 100.75577 | 39 ft | 3 kts | 281° |
| 2026-05-04 07:53 | 13.69318 | 100.75598 | 16 ft | 3 kts | 277° |
| 2026-05-04 07:54 | 13.69335 | 100.75656 | 13 ft | 0 kts | 194° |
| 2026-05-04 07:57 | 13.69318 | 100.75651 | 13 ft | 6 kts | 194° |
| 2026-05-04 07:57 | 13.69265 | 100.75637 | 13 ft | 9 kts | 194° |
| 2026-05-04 07:57 | 13.69194 | 100.75626 | 14 ft | 11 kts | 169° |
| 2026-05-04 07:58 | 13.69148 | 100.75694 | 14 ft | 14 kts | 102° |
| 2026-05-04 07:58 | 13.69110 | 100.75786 | 14 ft | 15 kts | 147° |
| 2026-05-04 07:58 | 13.69009 | 100.75769 | 13 ft | 16 kts | 195° |
| 2026-05-04 07:58 | 13.68897 | 100.75740 | 15 ft | 18 kts | 193° |
| 2026-05-04 07:59 | 13.68771 | 100.75707 | 13 ft | 20 kts | 194° |
| 2026-05-04 07:59 | 13.68632 | 100.75670 | 14 ft | 22 kts | 195° |
| 2026-05-04 07:59 | 13.68546 | 100.75648 | 13 ft | 9 kts | 194° |
| 2026-05-04 07:59 | 13.68481 | 100.75620 | 15 ft | 11 kts | 227° |
| 2026-05-04 08:00 | 13.68483 | 100.75538 | 13 ft | 13 kts | 285° |
| 2026-05-04 08:00 | 13.68509 | 100.75442 | 13 ft | 15 kts | 284° |
| 2026-05-04 08:00 | 13.68536 | 100.75332 | 13 ft | 17 kts | 284° |
| 2026-05-04 08:02 | 13.68794 | 100.74304 | 13 ft | 16 kts | 285° |
| 2026-05-04 08:02 | 13.68848 | 100.74212 | 14 ft | 17 kts | 351° |
| 2026-05-04 08:02 | 13.68968 | 100.74242 | 13 ft | 19 kts | 14° |
| 2026-05-04 08:03 | 13.69097 | 100.74276 | 13 ft | 20 kts | 13° |
| 2026-05-04 08:03 | 13.69233 | 100.74312 | 13 ft | 21 kts | 15° |
| 2026-05-04 08:03 | 13.69378 | 100.74350 | 13 ft | 22 kts | 14° |
| 2026-05-04 08:03 | 13.69530 | 100.74390 | 13 ft | 23 kts | 14° |
| 2026-05-04 08:04 | 13.69686 | 100.74432 | 13 ft | 24 kts | 14° |
| 2026-05-04 08:04 | 13.69841 | 100.74471 | 13 ft | 21 kts | 14° |
| 2026-05-04 08:04 | 13.69985 | 100.74510 | 13 ft | 22 kts | 14° |
| 2026-05-04 08:04 | 13.70134 | 100.74549 | 13 ft | 21 kts | 14° |
| 2026-05-04 08:05 | 13.70201 | 100.74522 | 13 ft | 11 kts | 296° |
| 2026-05-04 08:05 | 13.70223 | 100.74443 | 14 ft | 12 kts | 284° |
| 2026-05-04 08:05 | 13.70243 | 100.74352 | 14 ft | 14 kts | 283° |
| 2026-05-04 08:05 | 13.70198 | 100.74274 | 15 ft | 21 kts | 197° |
| 2026-05-04 08:06 | 13.69900 | 100.74196 | 13 ft | 71 kts | 194° |
| 2026-05-04 08:06 | 13.69236 | 100.74022 | 12 ft | 125 kts | 194° |
| 2026-05-04 08:06 | 13.68237 | 100.73759 | 56 ft | 166 kts | 195° |
| 2026-05-04 08:06 | 13.67140 | 100.73464 | 737 ft | 164 kts | 194° |
| 2026-05-04 08:08 | 13.57231 | 100.70862 | 4080 ft | 280 kts | 193° |
| 2026-05-04 08:08 | 13.55290 | 100.70358 | 4769 ft | 293 kts | 192° |
| 2026-05-04 08:10 | 13.42859 | 100.58308 | 11036 ft | 325 kts | 228° |
| 2026-05-04 08:11 | 13.41363 | 100.56552 | 11753 ft | 328 kts | 228° |
| 2026-05-04 08:11 | 13.38135 | 100.53184 | 13151 ft | 335 kts | 220° |
| 2026-05-04 08:11 | 13.36402 | 100.51626 | 13806 ft | 338 kts | 220° |
| 2026-05-04 08:12 | 13.34620 | 100.50029 | 14406 ft | 341 kts | 220° |
| 2026-05-04 08:12 | 13.32824 | 100.48422 | 14993 ft | 345 kts | 221° |
| 2026-05-04 08:12 | 13.31007 | 100.46794 | 15595 ft | 348 kts | 221° |
| 2026-05-04 08:12 | 13.29172 | 100.45148 | 16144 ft | 352 kts | 221° |
| 2026-05-04 08:13 | 13.27319 | 100.43486 | 16721 ft | 356 kts | 221° |
| 2026-05-04 08:13 | 13.25441 | 100.41802 | 17253 ft | 361 kts | 220° |
| 2026-05-04 08:13 | 13.23535 | 100.40094 | 17810 ft | 365 kts | 221° |
| 2026-05-04 08:13 | 13.21616 | 100.38375 | 18336 ft | 368 kts | 221° |
| 2026-05-04 08:14 | 13.19685 | 100.36648 | 18543 ft | 381 kts | 221° |
| 2026-05-04 08:14 | 13.17644 | 100.34827 | 18657 ft | 396 kts | 221° |
| 2026-05-04 08:14 | 13.15526 | 100.32936 | 18778 ft | 410 kts | 221° |
| 2026-05-04 08:16 | 13.00130 | 100.19182 | 21903 ft | 423 kts | 222° |
| 2026-05-04 08:16 | 12.97973 | 100.17135 | 22399 ft | 422 kts | 225° |
| 2026-05-04 08:16 | 12.95892 | 100.15012 | 22909 ft | 422 kts | 227° |
| 2026-05-04 08:17 | 12.93864 | 100.12849 | 23428 ft | 421 kts | 227° |
| 2026-05-04 08:17 | 12.91853 | 100.10671 | 23850 ft | 420 kts | 227° |
| 2026-05-04 08:17 | 12.89838 | 100.08499 | 24288 ft | 420 kts | 227° |
| 2026-05-04 08:17 | 12.87810 | 100.06345 | 24727 ft | 419 kts | 227° |
| 2026-05-04 08:19 | 12.73448 | 99.91420 | 27225 ft | 432 kts | 225° |
| 2026-05-04 08:19 | 12.71326 | 99.89216 | 27474 ft | 436 kts | 225° |
| 2026-05-04 08:20 | 12.69189 | 99.86997 | 27717 ft | 440 kts | 225° |
| 2026-05-04 08:20 | 12.67766 | 99.85520 | 27887 ft | 442 kts | 225° |
| 2026-05-04 08:20 | 12.64890 | 99.82535 | 28180 ft | 446 kts | 225° |
| 2026-05-04 08:20 | 12.62695 | 99.80282 | 28436 ft | 449 kts | 223° |
| 2026-05-04 08:21 | 12.60205 | 99.78345 | 28695 ft | 451 kts | 211° |
| 2026-05-04 08:21 | 12.57367 | 99.76961 | 28958 ft | 453 kts | 199° |
| 2026-05-04 08:21 | 12.54298 | 99.76198 | 29224 ft | 455 kts | 187° |
| 2026-05-04 08:21 | 12.51136 | 99.76048 | 29486 ft | 457 kts | 180° |
| 2026-05-04 08:22 | 12.49029 | 99.76052 | 29668 ft | 458 kts | 180° |
| 2026-05-04 08:22 | 12.45835 | 99.76057 | 29929 ft | 460 kts | 180° |
| 2026-05-04 08:24 | 12.23257 | 99.76073 | 31560 ft | 468 kts | 180° |
| 2026-05-04 08:24 | 12.20005 | 99.76076 | 31797 ft | 467 kts | 180° |
| 2026-05-04 08:24 | 12.16754 | 99.76080 | 32035 ft | 467 kts | 180° |
| 2026-05-04 08:24 | 12.13505 | 99.76086 | 32277 ft | 467 kts | 181° |
| 2026-05-04 08:25 | 12.10261 | 99.76092 | 32515 ft | 466 kts | 180° |
| 2026-05-04 08:25 | 12.07018 | 99.76095 | 32765 ft | 466 kts | 181° |
| 2026-05-04 08:25 | 12.02731 | 99.76096 | 33092 ft | 464 kts | 181° |
| 2026-05-04 08:25 | 12.00548 | 99.76096 | 33258 ft | 465 kts | 181° |
| 2026-05-04 08:26 | 11.97314 | 99.76097 | 33501 ft | 465 kts | 181° |
| 2026-05-04 08:27 | 11.74712 | 99.76114 | 35124 ft | 464 kts | 181° |
| 2026-05-04 08:28 | 11.71514 | 99.76118 | 35351 ft | 465 kts | 181° |
| 2026-05-04 08:28 | 11.68287 | 99.76124 | 35587 ft | 464 kts | 180° |
| 2026-05-04 08:28 | 11.65054 | 99.76131 | 35790 ft | 465 kts | 181° |
| 2026-05-04 08:28 | 11.61819 | 99.76137 | 35855 ft | 465 kts | 181° |
| 2026-05-04 08:29 | 11.55358 | 99.76145 | 35860 ft | 464 kts | 181° |
| 2026-05-04 08:31 | 11.29558 | 99.76170 | 35860 ft | 464 kts | 181° |
| 2026-05-04 08:33 | 11.07266 | 99.74016 | 35860 ft | 461 kts | 198° |
| 2026-05-04 08:33 | 11.04197 | 99.73050 | 35858 ft | 461 kts | 198° |
| 2026-05-04 08:35 | 10.79661 | 99.65372 | 35857 ft | 462 kts | 198° |
| 2026-05-04 08:35 | 10.73503 | 99.63448 | 35836 ft | 463 kts | 197° |
| 2026-05-04 08:37 | 10.51855 | 99.56670 | 35841 ft | 466 kts | 197° |
| 2026-05-04 08:38 | 10.45694 | 99.54749 | 35842 ft | 466 kts | 197° |
| 2026-05-04 08:38 | 10.39483 | 99.52817 | 35836 ft | 467 kts | 197° |
| 2026-05-04 08:40 | 10.14514 | 99.45031 | 35838 ft | 470 kts | 197° |
| 2026-05-04 08:41 | 10.08266 | 99.43087 | 35847 ft | 470 kts | 198° |
| 2026-05-04 08:41 | 10.02013 | 99.41135 | 35849 ft | 470 kts | 197° |
| 2026-05-04 08:42 | 9.95750 | 99.39192 | 35843 ft | 470 kts | 198° |
| 2026-05-04 08:42 | 9.89490 | 99.37243 | 35846 ft | 470 kts | 198° |
| 2026-05-04 08:43 | 9.83233 | 99.35292 | 35842 ft | 470 kts | 197° |
| 2026-05-04 08:43 | 9.77018 | 99.33364 | 35845 ft | 470 kts | 198° |
| 2026-05-04 08:46 | 9.45692 | 99.23639 | 35838 ft | 468 kts | 197° |
| 2026-05-04 08:46 | 9.39501 | 99.21717 | 35231 ft | 469 kts | 197° |
| 2026-05-04 08:46 | 9.36381 | 99.20747 | 34463 ft | 470 kts | 197° |
| 2026-05-04 08:47 | 9.33266 | 99.19779 | 33710 ft | 467 kts | 197° |
| 2026-05-04 08:47 | 9.30176 | 99.18818 | 32876 ft | 461 kts | 197° |
| 2026-05-04 08:47 | 9.27135 | 99.17873 | 32070 ft | 455 kts | 197° |
| 2026-05-04 08:47 | 9.24128 | 99.16939 | 31289 ft | 449 kts | 197° |
| 2026-05-04 08:48 | 9.21156 | 99.16020 | 30519 ft | 443 kts | 197° |
| 2026-05-04 08:48 | 9.18226 | 99.15114 | 29769 ft | 438 kts | 197° |
| 2026-05-04 08:48 | 9.15336 | 99.14215 | 28896 ft | 432 kts | 197° |
| 2026-05-04 08:48 | 9.12637 | 99.13025 | 28061 ft | 428 kts | 210° |
| 2026-05-04 08:49 | 9.10243 | 99.11268 | 27253 ft | 424 kts | 219° |
| 2026-05-04 08:50 | 8.96848 | 99.00275 | 22668 ft | 403 kts | 218° |
| 2026-05-04 08:50 | 8.94677 | 98.98501 | 21827 ft | 399 kts | 218° |
| 2026-05-04 08:51 | 8.92557 | 98.96770 | 21041 ft | 395 kts | 218° |
| 2026-05-04 08:51 | 8.90433 | 98.95033 | 20257 ft | 390 kts | 218° |
| 2026-05-04 08:51 | 8.88340 | 98.93319 | 19530 ft | 384 kts | 218° |
| 2026-05-04 08:51 | 8.86291 | 98.91640 | 18942 ft | 375 kts | 218° |
| 2026-05-04 08:52 | 8.84285 | 98.89997 | 18369 ft | 367 kts | 218° |
| 2026-05-04 08:52 | 8.82324 | 98.88393 | 17736 ft | 360 kts | 218° |
| 2026-05-04 08:52 | 8.80392 | 98.86815 | 17083 ft | 355 kts | 218° |
| 2026-05-04 08:52 | 8.78478 | 98.85256 | 16438 ft | 350 kts | 218° |
| 2026-05-04 08:53 | 8.76614 | 98.83740 | 15886 ft | 349 kts | 218° |
| 2026-05-04 08:54 | 8.63736 | 98.73260 | 13094 ft | 332 kts | 218° |
| 2026-05-04 08:55 | 8.61942 | 98.71802 | 12664 ft | 330 kts | 217° |
| 2026-05-04 08:55 | 8.60181 | 98.70372 | 12251 ft | 328 kts | 217° |
| 2026-05-04 08:55 | 8.58406 | 98.68931 | 11829 ft | 327 kts | 217° |
| 2026-05-04 08:55 | 8.56641 | 98.67498 | 11422 ft | 325 kts | 217° |
| 2026-05-04 08:57 | 8.44048 | 98.58579 | 8658 ft | 308 kts | 209° |
| 2026-05-04 09:01 | 8.21507 | 98.55012 | 4635 ft | 205 kts | 172° |
| 2026-05-04 09:01 | 8.20102 | 98.55144 | 4316 ft | 200 kts | 172° |
| 2026-05-04 09:01 | 8.18756 | 98.55269 | 4007 ft | 196 kts | 172° |
| 2026-05-04 09:01 | 8.17405 | 98.55396 | 3695 ft | 194 kts | 172° |
| 2026-05-04 09:02 | 8.16059 | 98.55447 | 3382 ft | 195 kts | 184° |
| 2026-05-04 09:02 | 8.14759 | 98.55067 | 3069 ft | 196 kts | 204° |
| 2026-05-04 09:02 | 8.13656 | 98.54246 | 2571 ft | 199 kts | 226° |
| 2026-05-04 09:02 | 8.12945 | 98.53082 | 2462 ft | 195 kts | 247° |
| 2026-05-04 09:03 | 8.12663 | 98.51752 | 2468 ft | 195 kts | 265° |
| 2026-05-04 09:03 | 8.12581 | 98.50388 | 2468 ft | 195 kts | 266° |
| 2026-05-04 09:03 | 8.12496 | 98.49022 | 2457 ft | 195 kts | 264° |
| 2026-05-04 09:03 | 8.12412 | 98.47673 | 2459 ft | 196 kts | 263° |
| 2026-05-04 09:04 | 8.12329 | 98.46357 | 2455 ft | 178 kts | 265° |
| 2026-05-04 09:04 | 8.12254 | 98.45159 | 2384 ft | 163 kts | 265° |
| 2026-05-04 09:04 | 8.12184 | 98.44056 | 2231 ft | 154 kts | 263° |
| 2026-05-04 09:04 | 8.12116 | 98.42992 | 2036 ft | 149 kts | 264° |
| 2026-05-04 09:05 | 8.12050 | 98.41953 | 1833 ft | 147 kts | 264° |
| 2026-05-04 09:05 | 8.11985 | 98.40933 | 1638 ft | 144 kts | 263° |
| 2026-05-04 09:05 | 8.11922 | 98.39942 | 1446 ft | 144 kts | 263° |
| 2026-05-04 09:05 | 8.11859 | 98.38949 | 1247 ft | 143 kts | 264° |
| 2026-05-04 09:06 | 8.11796 | 98.37951 | 1061 ft | 142 kts | 264° |
| 2026-05-04 09:07 | 8.11307 | 98.31524 | 38 ft | 59 kts | 264° |
| 2026-05-04 09:08 | 8.11285 | 98.31294 | 32 ft | 25 kts | 264° |
| 2026-05-04 09:08 | 8.11218 | 98.31123 | 30 ft | 27 kts | 237° |
| 2026-05-04 09:08 | 8.11129 | 98.30996 | 30 ft | 12 kts | 233° |
| 2026-05-04 09:08 | 8.11087 | 98.30914 | 29 ft | 15 kts | 263° |
| 2026-05-04 09:09 | 8.11077 | 98.30809 | 29 ft | 6 kts | 264° |
| 2026-05-04 09:09 | 8.11072 | 98.30761 | 29 ft | 8 kts | 264° |
| 2026-05-04 09:09 | 8.11041 | 98.30726 | 28 ft | 8 kts | 180° |
| 2026-05-04 09:09 | 8.11003 | 98.30730 | 28 ft | 3 kts | 174° |
| 2026-05-04 09:10 | 8.10998 | 98.30731 | 28 ft | 0 kts | 174° |
| 2026-05-04 09:10 | 8.10993 | 98.30732 | 28 ft | 0 kts | 175° |
| 2026-05-04 09:10 | 8.10993 | 98.30731 | 28 ft | 0 kts | 175° |
| 2026-05-04 09:15 | 8.10993 | 98.30732 | 29 ft | 0 kts | 175° |